Aérodrome :
LOGIN :

S'inscrire | Disclaimer

   EN    FR    IT 

 










Légende :    VFR   VFR Marginal   IFR   IFR Intensif   IFR Très Intensif
Visi : 
Plafond : 
>= 8 km
>= 3000ft
5 à 8 km
1000 à 3000 ft
1500m à 5 km
500 à 1000 ft
800 à 1500m
200 à 500 ft
< 800m
< 200 ft
Symboles :   Orages  Brouillard  Fortes neiges  Fortes précipitations  Vent > 20 kt
SIGMETs :   Divers  Orages  Givrage  Turbulence  Onde Orograph.  Cendres Volcan.






- Altitude de l'aérodrome : 856 ft
- Code IATA : VGO


LEVX - Vigo Peinador

DERNIER METAR :
  • 032230Z 31009G20KT 250V050 9000 -RA FEW018 SCT030 BKN035 09/06 Q1003 TEMPO 3000 SHRA SCT030TCU

METARs EXPIRÉS :
  • 032200Z 30014G25KT 230V360 5000 RA BR FEW010 SCT017 BKN024 09/07 Q1004 TEMPO 3000 SHRA SCT030TCU
  • 032130Z 30009G24KT 240V010 2000 RA BR SCT009 BKN015 BKN022 09/08 Q1003 TEMPO 3000 SHRA SCT030TCU
  • 032100Z 32022G35KT 290V020 2000 RA BR SCT007 BKN013 BKN022 09/08 Q1003 TEMPO 3000 SHRA SCT030TCU
  • 032030Z 29010G23KT 210V340 9999 SCT010 BKN023 BKN035 10/09 Q1004 RERA TEMPO 3000 SHRA SCT030TCU
  • 032000Z VRB10G21KT 2000 RA BR BKN018 BKN032 OVC050 11/09 Q1004 TEMPO 3000 SHRA SCT030TCU

TAF TAF LEVX
Valide du 03 à 18h jusqu'au 04 à 18h UTC


031700Z 0318/0418 27009KT 9999 SCT010 BKN020 TX12/0414Z TN03/0407Z
TEMPO 0318/0412 29019G34KT
PROB40
TEMPO 0318/0412 1500 RADZ BCFG BKN005 BKN010 SCT030TCU
TEMPO 0318/0418 3000 RA SHRA BKN010 SCT030TCU
PROB40
TEMPO 0400/0418 3000 TS SHRAGR BKN010 SCT025CB



MET'MAP, la Météo Aéronautique d'un coup d'oeil ! - Copyright ORBIFLY Décembre 2007 - Disclaimer

ORBIFLY MET'MAP TEAM :

Programmation & Développement : Alexandra Zaïnal
Sur une idée originale de : Baudouin d'Aumeries
Assistance à la programmation : Marc-Olivier Méhu
Soutien technique & logistique : Manuel Goepfert

Contact : metmap@orbifly.com




SOURCES & CREDITS :

   NOAA